sensor_id;sensor_type;location;lat;lon;timestamp;P1;durP1;ratioP1;P2;durP2;ratioP2
67181;SDS011;54114;53.524;49.396;2022-07-29T00:01:29;32.45;;;11.95;;
67181;SDS011;54114;53.524;49.396;2022-07-29T00:03:56;27.85;;;10.38;;
67181;SDS011;54114;53.524;49.396;2022-07-29T00:06:22;22.90;;;9.07;;
67181;SDS011;54114;53.524;49.396;2022-07-29T00:08:49;20.30;;;8.90;;
67181;SDS011;54114;53.524;49.396;2022-07-29T00:11:15;18.05;;;8.32;;
67181;SDS011;54114;53.524;49.396;2022-07-29T00:13:42;25.48;;;8.05;;
67181;SDS011;54114;53.524;49.396;2022-07-29T00:16:09;14.40;;;7.18;;
67181;SDS011;54114;53.524;49.396;2022-07-29T00:18:36;17.80;;;7.55;;
67181;SDS011;54114;53.524;49.396;2022-07-29T00:21:05;17.77;;;8.13;;
67181;SDS011;54114;53.524;49.396;2022-07-29T00:23:31;14.68;;;7.22;;
67181;SDS011;54114;53.524;49.396;2022-07-29T00:25:58;19.27;;;7.70;;
67181;SDS011;54114;53.524;49.396;2022-07-29T00:28:25;20.42;;;8.52;;
67181;SDS011;54114;53.524;49.396;2022-07-29T00:30:51;24.30;;;10.45;;
67181;SDS011;54114;53.524;49.396;2022-07-29T00:33:18;25.20;;;9.75;;
67181;SDS011;54114;53.524;49.396;2022-07-29T00:35:45;25.90;;;10.35;;
67181;SDS011;54114;53.524;49.396;2022-07-29T00:38:12;23.55;;;10.10;;
67181;SDS011;54114;53.524;49.396;2022-07-29T00:40:41;22.67;;;11.70;;
67181;SDS011;54114;53.524;49.396;2022-07-29T00:43:09;30.25;;;11.20;;
67181;SDS011;54114;53.524;49.396;2022-07-29T00:45:36;29.70;;;10.60;;
67181;SDS011;54114;53.524;49.396;2022-07-29T00:48:03;29.70;;;10.93;;
67181;SDS011;54114;53.524;49.396;2022-07-29T00:50:31;30.88;;;12.35;;
67181;SDS011;54114;53.524;49.396;2022-07-29T00:52:58;27.95;;;12.32;;
67181;SDS011;54114;53.524;49.396;2022-07-29T00:55:26;32.92;;;11.02;;
67181;SDS011;54114;53.524;49.396;2022-07-29T00:57:53;24.02;;;10.85;;
67181;SDS011;54114;53.524;49.396;2022-07-29T01:00:24;28.38;;;10.88;;
67181;SDS011;54114;53.524;49.396;2022-07-29T01:02:52;27.92;;;11.70;;
67181;SDS011;54114;53.524;49.396;2022-07-29T01:05:20;27.05;;;10.55;;
67181;SDS011;54114;53.524;49.396;2022-07-29T01:07:51;30.83;;;11.07;;
67181;SDS011;54114;53.524;49.396;2022-07-29T01:10:19;23.92;;;10.20;;
67181;SDS011;54114;53.524;49.396;2022-07-29T01:12:48;44.53;;;11.93;;
67181;SDS011;54114;53.524;49.396;2022-07-29T01:15:17;27.25;;;10.50;;
67181;SDS011;54114;53.524;49.396;2022-07-29T01:23:40;32.00;;;11.57;;
67181;SDS011;54114;53.524;49.396;2022-07-29T01:29:34;29.97;;;12.47;;
67181;SDS011;54114;53.524;49.396;2022-07-29T01:32:11;39.20;;;13.80;;
67181;SDS011;54114;53.524;49.396;2022-07-29T01:37:50;44.95;;;17.35;;
67181;SDS011;54114;53.524;49.396;2022-07-29T01:40:45;46.60;;;17.40;;
67181;SDS011;54114;53.524;49.396;2022-07-29T01:45:50;56.88;;;21.70;;
67181;SDS011;54114;53.524;49.396;2022-07-29T01:51:06;73.15;;;25.42;;
67181;SDS011;54114;53.524;49.396;2022-07-29T01:56:38;83.72;;;31.73;;
67181;SDS011;54114;53.524;49.396;2022-07-29T01:59:08;121.22;;;42.62;;
67181;SDS011;54114;53.524;49.396;2022-07-29T02:01:36;152.25;;;54.92;;
67181;SDS011;54114;53.524;49.396;2022-07-29T02:04:06;124.32;;;40.92;;
67181;SDS011;54114;53.524;49.396;2022-07-29T02:06:36;125.80;;;46.00;;
67181;SDS011;54114;53.524;49.396;2022-07-29T02:09:04;116.20;;;44.65;;
67181;SDS011;54114;53.524;49.396;2022-07-29T02:11:33;106.05;;;38.72;;
67181;SDS011;54114;53.524;49.396;2022-07-29T02:14:01;112.47;;;40.15;;
67181;SDS011;54114;53.524;49.396;2022-07-29T02:16:30;121.45;;;42.47;;
67181;SDS011;54114;53.524;49.396;2022-07-29T02:18:58;81.90;;;31.12;;
67181;SDS011;54114;53.524;49.396;2022-07-29T02:21:28;69.47;;;27.10;;
67181;SDS011;54114;53.524;49.396;2022-07-29T02:23:59;55.45;;;21.90;;
67181;SDS011;54114;53.524;49.396;2022-07-29T02:26:29;60.17;;;22.08;;
67181;SDS011;54114;53.524;49.396;2022-07-29T02:28:57;45.22;;;18.40;;
67181;SDS011;54114;53.524;49.396;2022-07-29T02:31:26;45.40;;;18.48;;
67181;SDS011;54114;53.524;49.396;2022-07-29T02:33:58;40.63;;;16.40;;
67181;SDS011;54114;53.524;49.396;2022-07-29T02:36:29;33.25;;;14.13;;
67181;SDS011;54114;53.524;49.396;2022-07-29T02:38:57;27.65;;;12.18;;
67181;SDS011;54114;53.524;49.396;2022-07-29T02:41:30;22.02;;;9.15;;
67181;SDS011;54114;53.524;49.396;2022-07-29T02:44:15;24.02;;;9.80;;
67181;SDS011;54114;53.524;49.396;2022-07-29T02:49:48;9.48;;;4.75;;
67181;SDS011;54114;53.524;49.396;2022-07-29T02:52:55;7.37;;;3.47;;
67181;SDS011;54114;53.524;49.396;2022-07-29T02:55:40;6.62;;;3.00;;
67181;SDS011;54114;53.524;49.396;2022-07-29T02:58:21;9.57;;;7.78;;
67181;SDS011;54114;53.524;49.396;2022-07-29T03:00:59;5.90;;;3.90;;
67181;SDS011;54114;53.524;49.396;2022-07-29T03:03:35;11.55;;;4.10;;
67181;SDS011;54114;53.524;49.396;2022-07-29T03:06:03;5.65;;;3.35;;
67181;SDS011;54114;53.524;49.396;2022-07-29T03:08:33;5.18;;;2.95;;
67181;SDS011;54114;53.524;49.396;2022-07-29T03:11:00;10.23;;;3.37;;
67181;SDS011;54114;53.524;49.396;2022-07-29T03:13:28;4.12;;;2.80;;
67181;SDS011;54114;53.524;49.396;2022-07-29T03:15:57;8.73;;;3.08;;
67181;SDS011;54114;53.524;49.396;2022-07-29T03:18:24;6.95;;;3.00;;
67181;SDS011;54114;53.524;49.396;2022-07-29T03:20:51;3.95;;;2.95;;
67181;SDS011;54114;53.524;49.396;2022-07-29T03:23:19;7.55;;;3.17;;
67181;SDS011;54114;53.524;49.396;2022-07-29T03:25:48;8.27;;;2.90;;
67181;SDS011;54114;53.524;49.396;2022-07-29T03:28:16;6.90;;;3.47;;
67181;SDS011;54114;53.524;49.396;2022-07-29T03:30:43;7.82;;;3.15;;
67181;SDS011;54114;53.524;49.396;2022-07-29T03:33:09;9.15;;;2.70;;
67181;SDS011;54114;53.524;49.396;2022-07-29T03:35:36;6.72;;;4.12;;
67181;SDS011;54114;53.524;49.396;2022-07-29T03:38:06;5.65;;;2.90;;
67181;SDS011;54114;53.524;49.396;2022-07-29T03:40:35;5.10;;;3.47;;
67181;SDS011;54114;53.524;49.396;2022-07-29T03:43:10;4.28;;;2.40;;
67181;SDS011;54114;53.524;49.396;2022-07-29T03:45:38;5.97;;;2.80;;
67181;SDS011;54114;53.524;49.396;2022-07-29T03:48:10;4.22;;;2.60;;
67181;SDS011;54114;53.524;49.396;2022-07-29T03:50:41;5.07;;;2.60;;
67181;SDS011;54114;53.524;49.396;2022-07-29T03:53:08;6.35;;;2.78;;
67181;SDS011;54114;53.524;49.396;2022-07-29T03:55:41;4.18;;;2.80;;
67181;SDS011;54114;53.524;49.396;2022-07-29T03:58:12;4.47;;;2.40;;
67181;SDS011;54114;53.524;49.396;2022-07-29T04:00:40;3.40;;;2.60;;
67181;SDS011;54114;53.524;49.396;2022-07-29T04:03:08;5.53;;;3.15;;
67181;SDS011;54114;53.524;49.396;2022-07-29T04:05:35;4.32;;;2.83;;
67181;SDS011;54114;53.524;49.396;2022-07-29T04:08:02;8.00;;;2.58;;
67181;SDS011;54114;53.524;49.396;2022-07-29T04:10:28;6.97;;;2.72;;
67181;SDS011;54114;53.524;49.396;2022-07-29T04:12:55;4.62;;;2.70;;
67181;SDS011;54114;53.524;49.396;2022-07-29T04:15:22;6.40;;;2.85;;
67181;SDS011;54114;53.524;49.396;2022-07-29T04:17:48;5.72;;;2.47;;
67181;SDS011;54114;53.524;49.396;2022-07-29T04:20:15;5.25;;;2.97;;
67181;SDS011;54114;53.524;49.396;2022-07-29T04:22:42;4.53;;;2.53;;
67181;SDS011;54114;53.524;49.396;2022-07-29T04:25:09;3.97;;;2.50;;
67181;SDS011;54114;53.524;49.396;2022-07-29T04:27:35;13.70;;;3.72;;
67181;SDS011;54114;53.524;49.396;2022-07-29T04:30:22;6.90;;;3.15;;
67181;SDS011;54114;53.524;49.396;2022-07-29T04:32:49;12.52;;;3.20;;
67181;SDS011;54114;53.524;49.396;2022-07-29T04:35:15;3.35;;;2.42;;
67181;SDS011;54114;53.524;49.396;2022-07-29T04:37:42;4.10;;;2.33;;
67181;SDS011;54114;53.524;49.396;2022-07-29T04:40:09;4.37;;;2.87;;
67181;SDS011;54114;53.524;49.396;2022-07-29T04:42:37;6.68;;;3.05;;
67181;SDS011;54114;53.524;49.396;2022-07-29T04:45:05;4.47;;;2.80;;
67181;SDS011;54114;53.524;49.396;2022-07-29T04:47:32;10.20;;;2.80;;
67181;SDS011;54114;53.524;49.396;2022-07-29T04:49:58;5.35;;;2.80;;
67181;SDS011;54114;53.524;49.396;2022-07-29T04:52:25;14.20;;;2.72;;
67181;SDS011;54114;53.524;49.396;2022-07-29T04:54:52;4.07;;;2.75;;
67181;SDS011;54114;53.524;49.396;2022-07-29T04:57:19;3.58;;;2.95;;
67181;SDS011;54114;53.524;49.396;2022-07-29T04:59:46;4.95;;;2.72;;
67181;SDS011;54114;53.524;49.396;2022-07-29T05:02:12;6.78;;;2.67;;
67181;SDS011;54114;53.524;49.396;2022-07-29T05:04:39;10.18;;;2.70;;
67181;SDS011;54114;53.524;49.396;2022-07-29T05:07:06;6.12;;;3.03;;
67181;SDS011;54114;53.524;49.396;2022-07-29T05:09:32;7.47;;;2.83;;
67181;SDS011;54114;53.524;49.396;2022-07-29T05:11:59;4.95;;;2.60;;
67181;SDS011;54114;53.524;49.396;2022-07-29T05:14:27;3.42;;;2.65;;
67181;SDS011;54114;53.524;49.396;2022-07-29T05:16:53;5.70;;;3.08;;
67181;SDS011;54114;53.524;49.396;2022-07-29T05:19:22;3.97;;;2.58;;
67181;SDS011;54114;53.524;49.396;2022-07-29T05:21:49;4.25;;;2.58;;
67181;SDS011;54114;53.524;49.396;2022-07-29T05:24:16;9.90;;;3.20;;
67181;SDS011;54114;53.524;49.396;2022-07-29T05:26:42;5.97;;;2.70;;
67181;SDS011;54114;53.524;49.396;2022-07-29T05:29:09;4.05;;;2.53;;
67181;SDS011;54114;53.524;49.396;2022-07-29T05:31:36;5.00;;;2.72;;
67181;SDS011;54114;53.524;49.396;2022-07-29T05:34:03;5.15;;;2.75;;
67181;SDS011;54114;53.524;49.396;2022-07-29T05:36:29;4.97;;;2.62;;
67181;SDS011;54114;53.524;49.396;2022-07-29T05:38:56;4.12;;;2.78;;
67181;SDS011;54114;53.524;49.396;2022-07-29T05:41:23;4.18;;;2.70;;
67181;SDS011;54114;53.524;49.396;2022-07-29T05:43:50;3.42;;;2.20;;
67181;SDS011;54114;53.524;49.396;2022-07-29T05:46:17;3.53;;;2.50;;
67181;SDS011;54114;53.524;49.396;2022-07-29T05:48:44;3.20;;;2.35;;
67181;SDS011;54114;53.524;49.396;2022-07-29T05:51:11;8.20;;;2.70;;
67181;SDS011;54114;53.524;49.396;2022-07-29T05:53:38;5.78;;;2.58;;
67181;SDS011;54114;53.524;49.396;2022-07-29T05:56:05;3.70;;;2.60;;
67181;SDS011;54114;53.524;49.396;2022-07-29T05:58:32;3.22;;;2.60;;
67181;SDS011;54114;53.524;49.396;2022-07-29T06:00:59;10.02;;;2.70;;
67181;SDS011;54114;53.524;49.396;2022-07-29T06:03:26;4.50;;;2.30;;
67181;SDS011;54114;53.524;49.396;2022-07-29T06:05:53;4.80;;;2.45;;
67181;SDS011;54114;53.524;49.396;2022-07-29T06:08:19;4.10;;;2.53;;
67181;SDS011;54114;53.524;49.396;2022-07-29T06:10:46;3.47;;;2.35;;
67181;SDS011;54114;53.524;49.396;2022-07-29T06:13:13;9.10;;;2.58;;
67181;SDS011;54114;53.524;49.396;2022-07-29T06:15:41;5.78;;;2.33;;
67181;SDS011;54114;53.524;49.396;2022-07-29T06:18:08;4.55;;;2.50;;
67181;SDS011;54114;53.524;49.396;2022-07-29T06:20:36;4.25;;;2.25;;
67181;SDS011;54114;53.524;49.396;2022-07-29T06:23:02;6.03;;;2.42;;
67181;SDS011;54114;53.524;49.396;2022-07-29T06:25:30;4.25;;;2.20;;
67181;SDS011;54114;53.524;49.396;2022-07-29T06:28:01;3.55;;;2.40;;
67181;SDS011;54114;53.524;49.396;2022-07-29T06:30:28;6.37;;;2.90;;
67181;SDS011;54114;53.524;49.396;2022-07-29T06:32:55;5.45;;;2.25;;
67181;SDS011;54114;53.524;49.396;2022-07-29T06:35:22;4.00;;;3.10;;
67181;SDS011;54114;53.524;49.396;2022-07-29T06:37:49;5.78;;;2.55;;
67181;SDS011;54114;53.524;49.396;2022-07-29T06:40:16;4.72;;;2.87;;
67181;SDS011;54114;53.524;49.396;2022-07-29T06:43:02;4.85;;;3.03;;
67181;SDS011;54114;53.524;49.396;2022-07-29T06:45:28;2.78;;;2.50;;
67181;SDS011;54114;53.524;49.396;2022-07-29T06:47:55;4.35;;;2.78;;
67181;SDS011;54114;53.524;49.396;2022-07-29T06:50:22;3.67;;;2.50;;
67181;SDS011;54114;53.524;49.396;2022-07-29T06:52:48;5.87;;;3.10;;
67181;SDS011;54114;53.524;49.396;2022-07-29T06:55:15;4.40;;;2.97;;
67181;SDS011;54114;53.524;49.396;2022-07-29T06:57:44;4.80;;;2.60;;
67181;SDS011;54114;53.524;49.396;2022-07-29T07:00:11;6.95;;;2.65;;
67181;SDS011;54114;53.524;49.396;2022-07-29T07:02:39;5.68;;;2.25;;
67181;SDS011;54114;53.524;49.396;2022-07-29T07:05:06;2.85;;;2.40;;
67181;SDS011;54114;53.524;49.396;2022-07-29T07:07:33;4.80;;;2.60;;
67181;SDS011;54114;53.524;49.396;2022-07-29T07:10:00;3.65;;;2.87;;
67181;SDS011;54114;53.524;49.396;2022-07-29T07:12:27;6.53;;;2.67;;
67181;SDS011;54114;53.524;49.396;2022-07-29T07:14:54;6.15;;;2.62;;
67181;SDS011;54114;53.524;49.396;2022-07-29T07:17:20;3.45;;;2.83;;
67181;SDS011;54114;53.524;49.396;2022-07-29T07:19:47;3.40;;;2.47;;
67181;SDS011;54114;53.524;49.396;2022-07-29T07:22:14;7.35;;;2.80;;
67181;SDS011;54114;53.524;49.396;2022-07-29T07:24:40;4.72;;;2.58;;
67181;SDS011;54114;53.524;49.396;2022-07-29T07:27:07;4.12;;;2.42;;
67181;SDS011;54114;53.524;49.396;2022-07-29T07:29:34;2.90;;;2.30;;
67181;SDS011;54114;53.524;49.396;2022-07-29T07:32:01;7.18;;;3.00;;
67181;SDS011;54114;53.524;49.396;2022-07-29T07:34:28;6.10;;;2.85;;
67181;SDS011;54114;53.524;49.396;2022-07-29T07:36:55;4.32;;;2.90;;
67181;SDS011;54114;53.524;49.396;2022-07-29T07:39:22;4.37;;;2.78;;
67181;SDS011;54114;53.524;49.396;2022-07-29T07:41:48;4.20;;;2.90;;
67181;SDS011;54114;53.524;49.396;2022-07-29T07:44:15;6.62;;;2.72;;
67181;SDS011;54114;53.524;49.396;2022-07-29T07:46:42;6.68;;;3.33;;
67181;SDS011;54114;53.524;49.396;2022-07-29T07:49:10;4.28;;;3.10;;
67181;SDS011;54114;53.524;49.396;2022-07-29T07:51:37;5.45;;;2.92;;
67181;SDS011;54114;53.524;49.396;2022-07-29T07:54:04;4.68;;;3.00;;
67181;SDS011;54114;53.524;49.396;2022-07-29T07:56:31;4.40;;;3.30;;
67181;SDS011;54114;53.524;49.396;2022-07-29T07:58:57;6.18;;;3.55;;
67181;SDS011;54114;53.524;49.396;2022-07-29T08:01:24;4.75;;;3.25;;
67181;SDS011;54114;53.524;49.396;2022-07-29T08:03:51;4.70;;;3.03;;
67181;SDS011;54114;53.524;49.396;2022-07-29T08:06:18;5.15;;;3.40;;
67181;SDS011;54114;53.524;49.396;2022-07-29T08:08:45;3.90;;;3.22;;
67181;SDS011;54114;53.524;49.396;2022-07-29T08:11:12;9.75;;;3.80;;
67181;SDS011;54114;53.524;49.396;2022-07-29T08:13:39;3.40;;;2.90;;
67181;SDS011;54114;53.524;49.396;2022-07-29T08:16:07;5.32;;;3.05;;
67181;SDS011;54114;53.524;49.396;2022-07-29T08:18:38;4.00;;;3.08;;
67181;SDS011;54114;53.524;49.396;2022-07-29T08:21:05;5.35;;;3.20;;
67181;SDS011;54114;53.524;49.396;2022-07-29T08:23:32;4.47;;;3.17;;
67181;SDS011;54114;53.524;49.396;2022-07-29T08:26:10;4.05;;;3.60;;
67181;SDS011;54114;53.524;49.396;2022-07-29T08:28:38;3.85;;;3.00;;
67181;SDS011;54114;53.524;49.396;2022-07-29T08:31:09;7.25;;;3.10;;
67181;SDS011;54114;53.524;49.396;2022-07-29T08:33:37;7.72;;;3.67;;
67181;SDS011;54114;53.524;49.396;2022-07-29T08:36:04;5.53;;;3.10;;
67181;SDS011;54114;53.524;49.396;2022-07-29T08:38:32;6.20;;;3.03;;
67181;SDS011;54114;53.524;49.396;2022-07-29T08:41:02;4.53;;;3.10;;
67181;SDS011;54114;53.524;49.396;2022-07-29T08:43:29;6.53;;;3.40;;
67181;SDS011;54114;53.524;49.396;2022-07-29T08:45:57;5.57;;;3.28;;
67181;SDS011;54114;53.524;49.396;2022-07-29T08:48:24;9.15;;;4.90;;
67181;SDS011;54114;53.524;49.396;2022-07-29T08:50:54;5.28;;;4.18;;
67181;SDS011;54114;53.524;49.396;2022-07-29T08:53:23;7.37;;;3.28;;
67181;SDS011;54114;53.524;49.396;2022-07-29T08:55:52;6.57;;;2.87;;
67181;SDS011;54114;53.524;49.396;2022-07-29T08:58:20;7.50;;;2.92;;
67181;SDS011;54114;53.524;49.396;2022-07-29T09:00:51;5.30;;;2.90;;
67181;SDS011;54114;53.524;49.396;2022-07-29T09:03:20;5.95;;;3.08;;
67181;SDS011;54114;53.524;49.396;2022-07-29T09:05:50;3.80;;;3.40;;
67181;SDS011;54114;53.524;49.396;2022-07-29T09:08:18;3.85;;;3.03;;
67181;SDS011;54114;53.524;49.396;2022-07-29T09:10:45;5.45;;;3.28;;
67181;SDS011;54114;53.524;49.396;2022-07-29T09:13:18;4.15;;;3.00;;
67181;SDS011;54114;53.524;49.396;2022-07-29T09:15:45;8.10;;;4.47;;
67181;SDS011;54114;53.524;49.396;2022-07-29T09:18:12;4.25;;;2.97;;
67181;SDS011;54114;53.524;49.396;2022-07-29T09:20:58;5.35;;;3.20;;
67181;SDS011;54114;53.524;49.396;2022-07-29T09:26:34;5.20;;;3.62;;
67181;SDS011;54114;53.524;49.396;2022-07-29T09:29:10;7.78;;;3.70;;
67181;SDS011;54114;53.524;49.396;2022-07-29T09:31:49;5.68;;;3.50;;
67181;SDS011;54114;53.524;49.396;2022-07-29T09:34:22;7.37;;;3.62;;
67181;SDS011;54114;53.524;49.396;2022-07-29T09:36:51;5.07;;;3.62;;
67181;SDS011;54114;53.524;49.396;2022-07-29T09:42:11;5.65;;;3.72;;
67181;SDS011;54114;53.524;49.396;2022-07-29T09:44:48;9.82;;;4.00;;
67181;SDS011;54114;53.524;49.396;2022-07-29T09:47:16;6.10;;;3.03;;
67181;SDS011;54114;53.524;49.396;2022-07-29T09:49:51;7.00;;;3.40;;
67181;SDS011;54114;53.524;49.396;2022-07-29T09:52:28;5.47;;;3.62;;
67181;SDS011;54114;53.524;49.396;2022-07-29T09:55:09;7.10;;;3.47;;
67181;SDS011;54114;53.524;49.396;2022-07-29T09:57:36;3.53;;;2.80;;
67181;SDS011;54114;53.524;49.396;2022-07-29T10:00:07;4.55;;;3.40;;
67181;SDS011;54114;53.524;49.396;2022-07-29T10:02:37;9.20;;;3.28;;
67181;SDS011;54114;53.524;49.396;2022-07-29T10:05:06;5.20;;;3.28;;
67181;SDS011;54114;53.524;49.396;2022-07-29T10:07:54;8.27;;;3.58;;
67181;SDS011;54114;53.524;49.396;2022-07-29T10:10:24;5.78;;;3.37;;
67181;SDS011;54114;53.524;49.396;2022-07-29T10:13:00;9.70;;;3.90;;
67181;SDS011;54114;53.524;49.396;2022-07-29T10:15:33;11.98;;;4.40;;
67181;SDS011;54114;53.524;49.396;2022-07-29T10:18:04;6.57;;;3.70;;
67181;SDS011;54114;53.524;49.396;2022-07-29T10:20:32;4.70;;;3.17;;
67181;SDS011;54114;53.524;49.396;2022-07-29T10:22:59;6.18;;;4.00;;
67181;SDS011;54114;53.524;49.396;2022-07-29T10:25:26;4.37;;;2.95;;
67181;SDS011;54114;53.524;49.396;2022-07-29T10:27:53;4.95;;;3.42;;
67181;SDS011;54114;53.524;49.396;2022-07-29T10:30:21;4.32;;;2.95;;
67181;SDS011;54114;53.524;49.396;2022-07-29T10:44:49;3.53;;;3.22;;
67181;SDS011;54114;53.524;49.396;2022-07-29T10:47:21;5.15;;;3.70;;
67181;SDS011;54114;53.524;49.396;2022-07-29T10:50:02;4.93;;;3.42;;
67181;SDS011;54114;53.524;49.396;2022-07-29T10:53:13;5.70;;;3.92;;
67181;SDS011;54114;53.524;49.396;2022-07-29T10:55:38;5.35;;;3.30;;
67181;SDS011;54114;53.524;49.396;2022-07-29T10:58:11;7.03;;;3.20;;
67181;SDS011;54114;53.524;49.396;2022-07-29T11:00:40;8.18;;;3.72;;
67181;SDS011;54114;53.524;49.396;2022-07-29T11:03:06;5.32;;;3.87;;
67181;SDS011;54114;53.524;49.396;2022-07-29T11:05:52;5.75;;;3.42;;
67181;SDS011;54114;53.524;49.396;2022-07-29T11:08:22;8.65;;;4.32;;
67181;SDS011;54114;53.524;49.396;2022-07-29T11:10:51;6.30;;;4.10;;
67181;SDS011;54114;53.524;49.396;2022-07-29T11:16:16;4.35;;;3.37;;
67181;SDS011;54114;53.524;49.396;2022-07-29T11:21:42;7.85;;;3.72;;
67181;SDS011;54114;53.524;49.396;2022-07-29T11:24:18;4.32;;;3.80;;
67181;SDS011;54114;53.524;49.396;2022-07-29T11:29:50;8.70;;;4.75;;
67181;SDS011;54114;53.524;49.396;2022-07-29T11:32:21;7.93;;;4.40;;
67181;SDS011;54114;53.524;49.396;2022-07-29T11:34:49;19.45;;;6.97;;
67181;SDS011;54114;53.524;49.396;2022-07-29T11:38:22;6.60;;;4.47;;
67181;SDS011;54114;53.524;49.396;2022-07-29T11:43:57;4.93;;;4.25;;
67181;SDS011;54114;53.524;49.396;2022-07-29T11:46:44;5.05;;;4.18;;
67181;SDS011;54114;53.524;49.396;2022-07-29T11:49:23;5.00;;;4.18;;
67181;SDS011;54114;53.524;49.396;2022-07-29T11:51:53;7.85;;;3.92;;
67181;SDS011;54114;53.524;49.396;2022-07-29T11:54:25;4.70;;;4.07;;
67181;SDS011;54114;53.524;49.396;2022-07-29T11:56:57;6.78;;;4.15;;
67181;SDS011;54114;53.524;49.396;2022-07-29T11:59:24;9.80;;;4.75;;
67181;SDS011;54114;53.524;49.396;2022-07-29T12:01:55;10.10;;;4.37;;
67181;SDS011;54114;53.524;49.396;2022-07-29T12:04:24;11.30;;;4.57;;
67181;SDS011;54114;53.524;49.396;2022-07-29T12:06:55;5.05;;;4.05;;
67181;SDS011;54114;53.524;49.396;2022-07-29T12:09:23;7.60;;;3.95;;
67181;SDS011;54114;53.524;49.396;2022-07-29T12:11:55;6.10;;;4.62;;
67181;SDS011;54114;53.524;49.396;2022-07-29T12:14:28;4.45;;;3.95;;
67181;SDS011;54114;53.524;49.396;2022-07-29T12:16:56;4.57;;;3.90;;
67181;SDS011;54114;53.524;49.396;2022-07-29T12:19:24;6.90;;;4.55;;
67181;SDS011;54114;53.524;49.396;2022-07-29T12:21:54;7.75;;;4.18;;
67181;SDS011;54114;53.524;49.396;2022-07-29T12:24:23;6.37;;;4.80;;
67181;SDS011;54114;53.524;49.396;2022-07-29T12:26:54;6.32;;;4.50;;
67181;SDS011;54114;53.524;49.396;2022-07-29T12:29:22;7.65;;;4.18;;
67181;SDS011;54114;53.524;49.396;2022-07-29T12:31:52;14.85;;;5.72;;
67181;SDS011;54114;53.524;49.396;2022-07-29T12:34:20;11.27;;;5.20;;
67181;SDS011;54114;53.524;49.396;2022-07-29T12:36:49;6.97;;;4.62;;
67181;SDS011;54114;53.524;49.396;2022-07-29T12:39:16;7.12;;;5.03;;
67181;SDS011;54114;53.524;49.396;2022-07-29T12:41:43;6.28;;;4.43;;
67181;SDS011;54114;53.524;49.396;2022-07-29T12:44:10;7.30;;;4.93;;
67181;SDS011;54114;53.524;49.396;2022-07-29T12:46:37;7.00;;;4.93;;
67181;SDS011;54114;53.524;49.396;2022-07-29T12:49:04;6.30;;;4.60;;
67181;SDS011;54114;53.524;49.396;2022-07-29T12:51:32;6.53;;;4.40;;
67181;SDS011;54114;53.524;49.396;2022-07-29T12:56:36;7.12;;;4.62;;
67181;SDS011;54114;53.524;49.396;2022-07-29T13:01:48;6.97;;;4.43;;
67181;SDS011;54114;53.524;49.396;2022-07-29T13:04:27;9.23;;;4.15;;
67181;SDS011;54114;53.524;49.396;2022-07-29T13:07:01;5.80;;;4.37;;
67181;SDS011;54114;53.524;49.396;2022-07-29T13:12:10;7.28;;;5.10;;
67181;SDS011;54114;53.524;49.396;2022-07-29T13:14:39;5.90;;;4.93;;
67181;SDS011;54114;53.524;49.396;2022-07-29T13:17:12;7.72;;;4.93;;
67181;SDS011;54114;53.524;49.396;2022-07-29T13:19:53;10.15;;;5.18;;
67181;SDS011;54114;53.524;49.396;2022-07-29T13:22:34;6.78;;;4.53;;
67181;SDS011;54114;53.524;49.396;2022-07-29T13:25:01;7.70;;;5.20;;
67181;SDS011;54114;53.524;49.396;2022-07-29T13:27:29;6.60;;;5.15;;
67181;SDS011;54114;53.524;49.396;2022-07-29T13:29:59;5.18;;;4.25;;
67181;SDS011;54114;53.524;49.396;2022-07-29T13:32:29;6.40;;;4.53;;
67181;SDS011;54114;53.524;49.396;2022-07-29T13:34:58;6.90;;;4.10;;
67181;SDS011;54114;53.524;49.396;2022-07-29T13:37:27;5.93;;;4.53;;
67181;SDS011;54114;53.524;49.396;2022-07-29T13:39:55;5.85;;;4.62;;
67181;SDS011;54114;53.524;49.396;2022-07-29T13:42:22;6.53;;;4.72;;
67181;SDS011;54114;53.524;49.396;2022-07-29T13:44:50;12.75;;;4.70;;
67181;SDS011;54114;53.524;49.396;2022-07-29T13:47:17;7.85;;;4.75;;
67181;SDS011;54114;53.524;49.396;2022-07-29T13:49:45;5.57;;;4.60;;
67181;SDS011;54114;53.524;49.396;2022-07-29T13:52:12;9.15;;;4.97;;
67181;SDS011;54114;53.524;49.396;2022-07-29T13:54:39;8.05;;;4.87;;
67181;SDS011;54114;53.524;49.396;2022-07-29T13:57:05;6.07;;;4.65;;
67181;SDS011;54114;53.524;49.396;2022-07-29T13:59:32;6.07;;;4.78;;
67181;SDS011;54114;53.524;49.396;2022-07-29T14:01:59;9.13;;;5.07;;
67181;SDS011;54114;53.524;49.396;2022-07-29T14:04:28;10.35;;;5.00;;
67181;SDS011;54114;53.524;49.396;2022-07-29T14:06:55;7.07;;;4.65;;
67181;SDS011;54114;53.524;49.396;2022-07-29T14:09:22;6.78;;;4.40;;
67181;SDS011;54114;53.524;49.396;2022-07-29T14:11:48;7.37;;;4.53;;
67181;SDS011;54114;53.524;49.396;2022-07-29T14:14:16;6.00;;;4.47;;
67181;SDS011;54114;53.524;49.396;2022-07-29T14:16:43;15.00;;;7.12;;
67181;SDS011;54114;53.524;49.396;2022-07-29T14:19:09;6.82;;;4.75;;
67181;SDS011;54114;53.524;49.396;2022-07-29T14:21:37;7.18;;;4.45;;
67181;SDS011;54114;53.524;49.396;2022-07-29T14:24:04;5.97;;;4.62;;
67181;SDS011;54114;53.524;49.396;2022-07-29T14:26:32;11.55;;;4.80;;
67181;SDS011;54114;53.524;49.396;2022-07-29T14:28:58;5.15;;;3.95;;
67181;SDS011;54114;53.524;49.396;2022-07-29T14:31:25;5.43;;;4.10;;
67181;SDS011;54114;53.524;49.396;2022-07-29T14:33:51;4.87;;;3.90;;
67181;SDS011;54114;53.524;49.396;2022-07-29T14:36:18;7.50;;;4.43;;
67181;SDS011;54114;53.524;49.396;2022-07-29T14:38:44;5.47;;;4.12;;
67181;SDS011;54114;53.524;49.396;2022-07-29T14:41:11;10.13;;;4.28;;
67181;SDS011;54114;53.524;49.396;2022-07-29T14:43:38;8.13;;;4.35;;
67181;SDS011;54114;53.524;49.396;2022-07-29T14:46:04;15.07;;;4.65;;
67181;SDS011;54114;53.524;49.396;2022-07-29T14:48:32;6.10;;;4.30;;
67181;SDS011;54114;53.524;49.396;2022-07-29T14:50:59;6.65;;;4.65;;
67181;SDS011;54114;53.524;49.396;2022-07-29T14:53:25;5.12;;;4.03;;
67181;SDS011;54114;53.524;49.396;2022-07-29T14:55:53;6.07;;;4.37;;
67181;SDS011;54114;53.524;49.396;2022-07-29T14:58:19;13.35;;;4.25;;
67181;SDS011;54114;53.524;49.396;2022-07-29T15:00:47;8.52;;;4.37;;
67181;SDS011;54114;53.524;49.396;2022-07-29T15:03:14;7.20;;;4.72;;
67181;SDS011;54114;53.524;49.396;2022-07-29T15:05:41;6.90;;;4.20;;
67181;SDS011;54114;53.524;49.396;2022-07-29T15:08:07;5.43;;;4.20;;
67181;SDS011;54114;53.524;49.396;2022-07-29T15:10:34;9.45;;;4.18;;
67181;SDS011;54114;53.524;49.396;2022-07-29T15:13:07;6.53;;;4.53;;
67181;SDS011;54114;53.524;49.396;2022-07-29T15:15:33;18.12;;;5.00;;
67181;SDS011;54114;53.524;49.396;2022-07-29T15:18:01;11.45;;;4.40;;
67181;SDS011;54114;53.524;49.396;2022-07-29T15:20:28;6.20;;;4.45;;
67181;SDS011;54114;53.524;49.396;2022-07-29T15:22:55;9.85;;;3.95;;
67181;SDS011;54114;53.524;49.396;2022-07-29T15:25:23;8.88;;;4.60;;
67181;SDS011;54114;53.524;49.396;2022-07-29T15:27:51;5.65;;;4.12;;
67181;SDS011;54114;53.524;49.396;2022-07-29T15:30:18;5.00;;;3.67;;
67181;SDS011;54114;53.524;49.396;2022-07-29T15:32:44;4.55;;;3.22;;
67181;SDS011;54114;53.524;49.396;2022-07-29T15:35:11;4.57;;;3.08;;
67181;SDS011;54114;53.524;49.396;2022-07-29T15:37:38;6.82;;;3.62;;
67181;SDS011;54114;53.524;49.396;2022-07-29T15:40:06;7.65;;;3.45;;
67181;SDS011;54114;53.524;49.396;2022-07-29T15:42:34;5.60;;;3.97;;